Latest Coastal Weather Observations for Hamilton Island

IDQ60701

Issued at 6:42 am EST Monday 28 September 2020 (issued every 10 minutes, with the page automatically refreshed every 10 minutes)

About coastal observations | Map of coastal stations | Coastal observations for QLD | Marine services | Other Formats
Station Details ID: 033106 Name: HAMILTON ISLAND AIRPORT Lat: -20.37 Lon: 148.95 Height: 58.66 m
Data from the previous 72 hours. | See also: Recent months at Hamilton Island
Date/Time
EST
Wind Sea
Height
m
Swell Vis
km
Cloud Weather Temp
°C
Press
MSL
hPa
Rain since
9am
mm
Dir  Spd
kts
Gust
kts
Height
m
Period
s
Dir
28/06:30am SE 14 16 - - - - 10 Partly cloudy - 22.0 1018.6 0.0
28/06:00am SE 13 15 - - - - 10 Mostly clear - 21.7 1018.4 0.0
28/05:30am SE 13 15 - - - - 10 Partly cloudy - 21.8 1018.1 0.0
28/05:28am SE 13 15 - - - - 10 Partly cloudy - 21.9 1018.1 0.0
28/05:00am SE 14 16 - - - - 10 Partly cloudy - 21.9 1017.7 0.0
28/04:30am SE 14 17 - - - - 10 Cloudy - 21.9 1017.4 0.0
28/04:00am SE 14 16 - - - - 10 Partly cloudy - 21.9 1017.1 0.0
28/03:30am SE 13 15 - - - - 10 Partly cloudy - 22.1 1016.9 0.0
28/03:29am SE 13 15 - - - - 10 Partly cloudy - 22.1 1016.9 0.0
28/03:12am SE 12 14 - - - - 10 Partly cloudy - 21.9 1016.9 0.0
28/03:00am SE 13 15 - - - - 10 Cloudy - 21.7 1017.1 0.0
28/02:33am SE 13 14 - - - - 10 Partly cloudy - 21.8 1017.2 0.0
28/02:30am SE 13 14 - - - - 10 Partly cloudy - 21.8 1017.2 0.0
28/02:25am SE 12 14 - - - - 10 Partly cloudy - 21.8 1017.3 0.0
28/02:00am SE 13 15 - - - - 10 Partly cloudy - 22.1 1017.3 0.0
28/01:30am SE 12 14 - - - - 10 Partly cloudy - 22.1 1017.6 0.0
28/01:00am SE 12 13 - - - - 10 Partly cloudy - 22.2 1018.0 0.0
28/12:46am SE 11 13 - - - - 10 Partly cloudy - 22.1 1018.0 0.0
28/12:30am ESE 11 14 - - - - 10 Partly cloudy - 22.3 1018.2 0.0
28/12:00am ESE 10 13 - - - - 10 Mostly clear - 22.3 1018.4 0.0
 
Date/Time
EST
Wind Sea
Height
m
Swell Vis
km
Cloud Weather Temp
°C
Press
MSL
hPa
Rain since
9am
mm
Dir  Spd
kts
Gust
kts
Height
m
Period
s
Dir
27/11:30pm ESE 12 14 - - - - 10 Partly cloudy - 22.5 1018.6 0.0
27/11:00pm ESE 12 13 - - - - 10 Partly cloudy - 22.4 1018.7 0.0
27/10:30pm ESE 12 14 - - - - 10 - - 22.5 1018.7 0.0
27/10:00pm ESE 14 15 - - - - 10 Partly cloudy - 22.6 1018.9 0.0
27/09:30pm ESE 14 16 - - - - 10 - - 22.6 1019.0 0.0
27/09:00pm ESE 15 17 - - - - 10 Partly cloudy - 22.5 1019.0 0.0
27/08:30pm E 15 17 - - - - 10 Partly cloudy - 22.7 1018.6 0.0
27/08:00pm E 15 17 - - - - 10 Partly cloudy - 22.7 1018.5 0.0
27/07:30pm ESE 16 18 - - - - 10 Partly cloudy - 22.8 1018.3 0.0
27/07:00pm ESE 15 17 - - - - 10 Partly cloudy - 22.8 1017.9 0.0
27/06:33pm ESE 17 19 - - - - 10 Partly cloudy - 22.8 1017.6 0.0
27/06:30pm ESE 16 18 - - - - 10 Partly cloudy - 22.7 1017.6 0.0
27/06:00pm ESE 16 19 - - - - 10 Partly cloudy - 22.8 1017.2 0.0
27/05:30pm E 17 18 - - - - 10 Partly cloudy - 22.9 1016.8 0.0
27/05:01pm ESE 17 18 - - - - 10 Partly cloudy - 23.0 1016.7 0.0
27/05:00pm E 17 18 - - - - 10 Partly cloudy - 23.2 1016.7 0.0
27/04:44pm ESE 16 18 - - - - 10 Partly cloudy - 23.3 1016.6 0.0
27/04:30pm ESE 16 19 - - - - 10 Partly cloudy - 23.3 1016.5 0.0
27/04:22pm E 17 19 - - - - 10 Partly cloudy - 23.4 1016.5 0.0
27/04:00pm E 17 19 - - - - 10 Partly cloudy - 23.7 1016.4 0.0
27/03:30pm E 17 19 - - - - 10 - - 24.0 1016.3 0.0
27/03:00pm E 16 18 - - - - 10 - - 24.2 1016.3 0.0
27/02:30pm E 15 18 - - - - 10 - - 24.6 1016.4 0.0
27/02:00pm ESE 13 16 - - - - 10 - - 25.4 1016.9 0.0
27/01:30pm ESE 14 16 - - - - 10 - - 25.6 1017.2 0.0
27/01:00pm ESE 14 17 - - - - 10 - - 25.7 1017.4 0.0
27/12:30pm ESE 14 16 - - - - 10 - - 26.0 1017.8 0.0
27/12:00pm ESE 13 14 - - - - 10 - - 25.7 1018.2 0.0
27/11:30am SE 13 16 - - - - 10 - - 25.9 1018.7 0.0
27/11:00am SE 13 15 - - - - 10 Partly cloudy - 26.7 1019.1 0.0
27/10:30am SE 13 15 - - - - 10 - - 24.7 1019.4 0.0
27/10:00am SE 12 14 - - - - 10 Partly cloudy - 26.0 1019.5 0.0
27/09:30am SE 11 13 - - - - 10 - - 25.3 1019.5 0.0
27/09:00am SE 10 11 - - - - 10 - - 25.1 1019.3 0.0
27/08:30am SE 9 11 - - - - 10 - - 24.8 1019.1 0.0
27/08:00am SSE 9 11 - - - - 10 - - 24.0 1018.8 0.0
27/07:30am SSE 9 11 - - - - 10 - - 23.6 1018.2 0.0
27/07:00am SSE 8 11 - - - - 10 - - 22.7 1017.8 0.0
27/06:30am SSE 9 11 - - - - 10 - - 22.1 1017.4 0.0
27/06:00am SE 7 8 - - - - 10 - - 21.3 1016.8 0.0
27/05:30am SE 5 6 - - - - 10 - - 21.3 1016.3 0.0
27/05:00am E 6 8 - - - - 10 - - 21.1 1016.1 0.0
27/04:30am SE 4 5 - - - - 10 - - 21.0 1015.9 0.0
27/04:00am SE 4 5 - - - - 10 - - 21.0 1015.7 0.0
27/03:30am CALM 0 0 - - - - 10 - - 21.3 1015.4 0.0
27/03:00am CALM 0 0 - - - - 10 - - 21.5 1015.6 0.0
27/02:30am CALM 0 0 - - - - 10 - - 21.3 1015.8 0.0
27/02:00am CALM 0 0 - - - - 10 - - 21.4 1015.9 0.0
27/01:30am NNW 2 4 - - - - 10 - - 21.2 1016.1 0.0
27/01:00am W 1 3 - - - - 10 - - 21.9 1016.1 0.0
27/12:30am W 5 5 - - - - 10 - - 21.6 1016.4 0.0
27/12:00am NW 6 7 - - - - 10 - - 21.7 1016.5 0.0
 
Date/Time
EST
Wind Sea
Height
m
Swell Vis
km
Cloud Weather Temp
°C
Press
MSL
hPa
Rain since
9am
mm
Dir  Spd
kts
Gust
kts
Height
m
Period
s
Dir
26/11:30pm NW 5 6 - - - - 10 - - 21.9 1016.6 0.0
26/11:00pm NW 5 5 - - - - 10 - - 22.0 1016.6 0.0
26/10:30pm NW 6 7 - - - - 10 - - 22.3 1016.5 0.0
26/10:00pm NNW 6 7 - - - - 10 - - 22.3 1016.4 0.0
26/09:30pm NW 5 6 - - - - 10 - - 22.9 1016.6 0.0
26/09:00pm WNW 4 6 - - - - 10 - - 23.2 1016.5 0.0
26/08:30pm WNW 4 5 - - - - 10 - - 23.6 1016.1 0.0
26/08:00pm WNW 3 4 - - - - 10 - - 23.6 1015.9 0.0
26/07:30pm NNW 7 9 - - - - 10 - - 23.9 1015.6 0.0
26/07:00pm NNE 5 9 - - - - 10 - - 24.5 1015.1 0.0
26/06:30pm NNE 7 10 - - - - 10 - - 24.7 1014.7 0.0
26/06:00pm NE 5 7 - - - - 10 - - 25.0 1014.3 0.0
26/05:30pm NNE 10 15 - - - - 10 - - 26.0 1013.8 0.0
26/05:00pm NNE 13 17 - - - - 10 - - 26.5 1013.5 0.0
26/04:30pm NE 10 14 - - - - 10 - - 27.4 1013.4 0.0
26/04:00pm ENE 13 19 - - - - 10 - - 27.7 1013.1 0.0
26/03:30pm ENE 15 19 - - - - 10 - - 27.1 1013.1 0.0
26/03:00pm E 13 18 - - - - 10 - - 27.2 1013.3 0.0
26/02:30pm E 15 19 - - - - 10 - - 26.9 1013.5 0.0
26/02:00pm E 14 19 - - - - 10 - - 27.4 1013.7 0.0
26/01:30pm E 10 12 - - - - 10 - - 27.8 1014.3 0.0
26/01:00pm ESE 7 9 - - - - 10 - - 26.7 1014.9 0.0
26/12:30pm ESE 5 6 - - - - 10 - - 26.2 1015.5 0.0
26/12:00pm ESE 5 6 - - - - 10 Mostly clear - 26.5 1015.8 0.0
26/11:30am ESE 7 8 - - - - 10 Partly cloudy - 26.8 1016.1 0.0
26/11:00am ESE 6 8 - - - - 10 - - 26.0 1016.5 0.0
26/10:30am SE 7 8 - - - - 10 - - 25.5 1016.8 0.0
26/10:00am ESE 6 7 - - - - 10 - - 26.4 1016.9 0.0
26/09:30am NW 5 8 - - - - 10 - - 26.4 1016.9 0.0
26/09:00am NW 5 8 - - - - 10 - - 25.3 1016.7 0.0
26/08:30am NW 7 10 - - - - 10 - - 24.7 1016.6 0.0
26/08:00am NW 10 13 - - - - 10 - - 23.5 1016.1 0.0
26/07:30am NW 8 10 - - - - 10 - - 22.9 1015.8 0.0
26/07:00am NNW 7 9 - - - - 10 - - 22.4 1015.1 0.0
26/06:30am NNW 7 8 - - - - 10 - - 21.7 1014.9 0.0
26/06:00am NW 6 7 - - - - 10 - - 21.3 1014.6 0.0
26/05:30am NW 5 6 - - - - 10 - - 21.5 1014.0 0.0
26/05:00am NNW 8 9 - - - - 10 - - 21.6 1013.6 0.0
26/04:30am NW 6 8 - - - - 10 - - 21.6 1013.4 0.0
26/04:00am W 8 9 - - - - 10 - - 21.7 1013.3 0.0
26/03:30am W 8 10 - - - - 10 - - 21.7 1013.2 0.0
26/03:00am WSW 6 7 - - - - 10 Mostly clear - 21.8 1013.4 0.0
26/02:50am WSW 7 8 - - - - 10 Partly cloudy - 21.8 1013.5 0.0
26/02:30am WSW 7 8 - - - - 10 Partly cloudy - 21.9 1013.7 0.0
26/02:29am WSW 7 8 - - - - 10 Partly cloudy - 22.0 1013.7 0.0
26/02:00am W 6 8 - - - - 10 Partly cloudy - 21.9 1013.9 0.0
26/01:49am W 7 9 - - - - 10 Partly cloudy - 22.1 1014.1 0.0
26/01:38am W 5 7 - - - - 10 Partly cloudy - 22.0 1014.2 0.0
26/01:30am WNW 6 8 - - - - 10 Partly cloudy - 21.9 1014.4 0.0
26/01:00am NW 6 8 - - - - 10 - - 22.0 1013.9 0.0
26/12:30am NNW 8 9 - - - - 10 - - 22.2 1014.2 0.0
26/12:00am NNW 7 10 - - - - 10 - - 22.3 1014.3 0.0
 
Date/Time
EST
Wind Sea
Height
m
Swell Vis
km
Cloud Weather Temp
°C
Press
MSL
hPa
Rain since
9am
mm
Dir  Spd
kts
Gust
kts
Height
m
Period
s
Dir
25/11:30pm N 6 8 - - - - 10 - - 22.3 1014.3 0.0
25/11:00pm N 7 9 - - - - 10 - - 22.4 1014.4 0.0
25/10:30pm N 6 9 - - - - 10 - - 22.7 1014.3 0.0
25/10:00pm N 7 9 - - - - 10 - - 22.8 1014.4 0.0
25/09:30pm N 7 9 - - - - 10 - - 22.8 1014.3 0.0
25/09:00pm N 7 10 - - - - 10 - - 22.9 1014.3 0.0
25/08:30pm N 9 11 - - - - 10 - - 23.0 1014.0 0.0
25/08:00pm N 9 11 - - - - 10 - - 23.1 1014.0 0.0
25/07:30pm N 8 12 - - - - 10 - - 23.3 1013.9 0.0
25/07:00pm N 8 10 - - - - 10 - - 23.5 1013.6 0.0
25/06:30pm NNW 9 12 - - - - 10 - - 23.6 1013.3 0.0
25/06:00pm NNW 13 16 - - - - 10 Mostly clear - 23.8 1012.6 0.0
25/05:30pm NW 13 17 - - - - 10 Partly cloudy - 24.2 1012.6 0.0
25/05:00pm NW 14 18 - - - - 10 Partly cloudy - 24.8 1012.1 0.0
25/04:30pm NW 13 17 - - - - 10 Partly cloudy - 24.9 1012.2 0.0
25/04:00pm NW 14 18 - - - - 10 Partly cloudy - 26.1 1011.9 0.0
25/03:30pm NW 13 18 - - - - 10 Partly cloudy - 26.2 1011.8 0.0
25/03:00pm NNW 13 16 - - - - 10 Mostly clear - 26.6 1012.1 0.0
25/02:30pm NW 13 16 - - - - 10 Cloudy - 25.7 1012.2 0.0
25/02:00pm NW 13 16 - - - - 10 Cloudy - 24.5 1012.7 0.0
25/01:30pm NW 13 16 - - - - 10 Partly cloudy - 24.7 1012.9 0.0
25/01:00pm NW 11 15 - - - - 10 Partly cloudy - 25.3 1013.3 0.0
25/12:30pm WNW 6 9 - - - - 10 Partly cloudy - 24.9 1013.5 0.0
25/12:00pm WNW 5 6 - - - - 10 Cloudy - 25.1 1014.0 0.0
25/11:30am SW 6 7 - - - - 10 Partly cloudy - 25.0 1014.4 0.0
25/11:08am SSE 6 8 - - - - 10 Partly cloudy - 24.3 1014.7 0.0
25/11:00am SSE 6 8 - - - - 10 Partly cloudy - 24.2 1014.7 0.0
25/10:30am SSE 5 7 - - - - 10 Partly cloudy - 24.1 1015.0 0.0
25/10:00am ESE 8 9 - - - - 10 Cloudy - 24.4 1015.2 0.0
25/09:30am SE 5 6 - - - - 10 Partly cloudy - 24.6 1015.4 0.0
25/09:00am SE 6 7 - - - - 10 Cloudy - 23.5 1015.4 0.0
25/08:48am SE 5 6 - - - - 10 Partly cloudy - 23.6 1015.4 0.0
25/08:30am SE 5 6 - - - - 10 Partly cloudy - 23.0 1015.3 0.0
25/08:00am SE 4 5 - - - - 10 Partly cloudy - 22.1 1015.0 0.0
25/07:30am SE 2 4 - - - - 10 Partly cloudy - 22.3 1014.9 0.0
25/07:00am CALM 0 0 - - - - 10 Partly cloudy - 22.1 1014.6 0.0

Other formats

Comma delimited format used in spreadsheet applications
http://www.bom.gov.au/fwo/IDQ60701/IDQ60701.94368.axf

JavaScript Object Notation format (JSON) in row-major order
http://www.bom.gov.au/fwo/IDQ60701/IDQ60701.94368.json

Data quality

Most of these data are generated automatically and are frequently updated. Quality checks on data are not normally performed. It is possible for incorrect values to appear. Refer to information at About Latest Weather Observations and please check the disclaimer before using these data.